Wetterdaten: Woche 20.08.12 - 26.08.12 (KW34)
Datum Zeit Temperatur Luftfeuchte Luftdruck Niederschlag Windrichtung Sonnenschein Solar Wind
20.08.2012 00:00 18,9 C 82 % 1016,7 hPa 0,0 l/m N 0,00 h 0 W/m 0,4 km/h (0 Bft)
20.08.2012 01:00 17,5 C 88 % 1016,6 hPa 0,0 l/m N 0,00 h 0 W/m 0,3 km/h (0 Bft)
20.08.2012 02:00 16,6 C 92 % 1016,6 hPa 0,0 l/m N 0,00 h 0 W/m 0,0 km/h (0 Bft)
20.08.2012 03:00 16,0 C 93 % 1017,0 hPa 0,0 l/m N 0,00 h 0 W/m 0,5 km/h (0 Bft)
20.08.2012 04:00 15,2 C 95 % 1017,2 hPa 0,0 l/m N 0,00 h 0 W/m 0,0 km/h (0 Bft)
20.08.2012 05:00 14,9 C 96 % 1017,4 hPa 0,0 l/m N 0,00 h 0 W/m 0,0 km/h (0 Bft)
20.08.2012 06:00 14,7 C 96 % 1017,9 hPa 0,0 l/m N 0,08 h 11 W/m 0,0 km/h (0 Bft)
20.08.2012 07:00 15,9 C 96 % 1018,2 hPa 0,0 l/m N 0,17 h 80 W/m 0,0 km/h (0 Bft)
20.08.2012 08:00 18,7 C 91 % 1018,2 hPa 0,0 l/m N 1,00 h 245 W/m 0,0 km/h (0 Bft)
20.08.2012 09:00 22,9 C 76 % 1018,3 hPa 0,0 l/m N 1,00 h 410 W/m 1,2 km/h (1 Bft)
20.08.2012 10:00 25,3 C 69 % 1018,3 hPa 0,0 l/m S-SW 0,92 h 540 W/m 9,8 km/h (2 Bft)
20.08.2012 11:00 27,4 C 67 % 1018,1 hPa 0,0 l/m SW 1,00 h 686 W/m 10,8 km/h (2 Bft)
20.08.2012 12:00 29,5 C 60 % 1017,4 hPa 0,0 l/m SW 1,00 h 768 W/m 11,6 km/h (2 Bft)
20.08.2012 13:00 31,2 C 52 % 1016,9 hPa 0,0 l/m S 1,00 h 802 W/m 12,1 km/h (2 Bft)
20.08.2012 14:00 32,3 C 47 % 1016,6 hPa 0,0 l/m SW 1,00 h 782 W/m 10,7 km/h (2 Bft)
20.08.2012 15:00 32,5 C 45 % 1016,2 hPa 0,0 l/m S-SW 1,00 h 707 W/m 7,9 km/h (2 Bft)
20.08.2012 16:00 32,2 C 47 % 1016,1 hPa 0,0 l/m O-SO 0,42 h 372 W/m 3,1 km/h (1 Bft)
20.08.2012 17:00 29,8 C 63 % 1016,0 hPa 0,0 l/m N 0,00 h 142 W/m 0,0 km/h (0 Bft)
20.08.2012 18:00 28,6 C 58 % 1016,5 hPa 0,0 l/m N-NW 0,00 h 72 W/m 12,1 km/h (2 Bft)
20.08.2012 19:00 27,5 C 59 % 1016,7 hPa 0,0 l/m N 0,00 h 33 W/m 3,1 km/h (1 Bft)
20.08.2012 20:00 26,4 C 63 % 1017,0 hPa 0,0 l/m N 0,00 h 9 W/m 4,8 km/h (1 Bft)
20.08.2012 21:00 25,4 C 67 % 1017,1 hPa 0,0 l/m N 0,00 h 0 W/m 4,7 km/h (1 Bft)
20.08.2012 22:00 23,8 C 75 % 1018,1 hPa 13,2 l/m SW 0,00 h 0 W/m 19,4 km/h (3 Bft)
20.08.2012 23:00 19,5 C 94 % 1019,9 hPa 1,0 l/m S-SW 0,00 h 0 W/m 13,0 km/h (3 Bft)
21.08.2012 00:00 19,0 C 96 % 1019,4 hPa 0,0 l/m N 0,00 h 0 W/m 1,5 km/h (1 Bft)
21.08.2012 01:00 18,4 C 96 % 1018,8 hPa 0,0 l/m N 0,00 h 0 W/m 0,8 km/h (0 Bft)
21.08.2012 02:00 17,9 C 97 % 1018,4 hPa 0,0 l/m N-NW 0,00 h 0 W/m 4,5 km/h (1 Bft)
21.08.2012 03:00 17,4 C 97 % 1017,7 hPa 0,0 l/m N-NW 0,00 h 0 W/m 3,5 km/h (1 Bft)
21.08.2012 04:00 16,8 C 98 % 1017,4 hPa 0,0 l/m N 0,00 h 0 W/m 0,4 km/h (0 Bft)
21.08.2012 05:00 16,3 C 98 % 1017,1 hPa 0,2 l/m N 0,00 h 0 W/m 0,4 km/h (0 Bft)
21.08.2012 06:00 16,1 C 98 % 1017,2 hPa 0,0 l/m N 0,00 h 11 W/m 0,1 km/h (0 Bft)
21.08.2012 07:00 16,6 C 99 % 1017,2 hPa 0,0 l/m N 0,00 h 72 W/m 0,0 km/h (0 Bft)
21.08.2012 08:00 18,5 C 95 % 1017,2 hPa 0,0 l/m NO 0,92 h 217 W/m 2,4 km/h (1 Bft)
21.08.2012 09:00 20,1 C 90 % 1016,9 hPa 0,0 l/m S-SW 0,92 h 364 W/m 6,8 km/h (2 Bft)
21.08.2012 10:00 21,6 C 83 % 1016,8 hPa 0,0 l/m S-SW 0,83 h 459 W/m 10,8 km/h (2 Bft)
21.08.2012 11:00 23,7 C 77 % 1016,4 hPa 0,0 l/m S-SO 1,00 h 638 W/m 9,0 km/h (2 Bft)
21.08.2012 12:00 25,5 C 71 % 1015,8 hPa 0,0 l/m S-SW 1,00 h 721 W/m 9,1 km/h (2 Bft)
21.08.2012 13:00 27,4 C 67 % 1015,4 hPa 0,0 l/m S-SW 1,00 h 753 W/m 11,7 km/h (2 Bft)
21.08.2012 14:00 28,4 C 65 % 1014,9 hPa 0,0 l/m S-SW 1,00 h 715 W/m 10,9 km/h (2 Bft)
21.08.2012 15:00 29,4 C 61 % 1014,2 hPa 0,0 l/m S-SW 1,00 h 643 W/m 9,3 km/h (2 Bft)
21.08.2012 16:00 29,6 C 60 % 1013,6 hPa 0,0 l/m SW 1,00 h 514 W/m 10,5 km/h (2 Bft)
21.08.2012 17:00 29,1 C 58 % 1013,1 hPa 0,0 l/m S-SW 0,58 h 301 W/m 9,1 km/h (2 Bft)
21.08.2012 18:00 27,5 C 67 % 1012,7 hPa 0,0 l/m SW 0,50 h 163 W/m 6,0 km/h (2 Bft)
21.08.2012 19:00 26,3 C 72 % 1012,3 hPa 0,0 l/m SW 0,25 h 60 W/m 3,9 km/h (1 Bft)
21.08.2012 20:00 24,9 C 80 % 1012,1 hPa 0,0 l/m N 0,00 h 8 W/m 1,3 km/h (1 Bft)
21.08.2012 21:00 22,9 C 88 % 1012,5 hPa 0,0 l/m N 0,00 h 0 W/m 0,4 km/h (0 Bft)
21.08.2012 22:00 21,4 C 93 % 1012,6 hPa 0,0 l/m N 0,00 h 0 W/m 0,0 km/h (0 Bft)
21.08.2012 23:00 20,5 C 95 % 1012,5 hPa 0,0 l/m N 0,00 h 0 W/m 0,1 km/h (0 Bft)
22.08.2012 00:00 19,9 C 96 % 1012,4 hPa 0,0 l/m N 0,00 h 0 W/m 0,0 km/h (0 Bft)
22.08.2012 01:00 19,6 C 96 % 1012,5 hPa 7,2 l/m SW 0,00 h 0 W/m 10,8 km/h (2 Bft)
22.08.2012 02:00 18,7 C 96 % 1012,4 hPa 0,0 l/m SW 0,00 h 0 W/m 5,5 km/h (1 Bft)
22.08.2012 03:00 19,4 C 95 % 1013,2 hPa 0,0 l/m S-SW 0,00 h 0 W/m 24,5 km/h (4 Bft)
22.08.2012 04:00 19,4 C 91 % 1012,8 hPa 0,0 l/m SW 0,00 h 0 W/m 21,3 km/h (4 Bft)
22.08.2012 05:00 18,9 C 90 % 1013,0 hPa 0,0 l/m SW 0,00 h 0 W/m 8,1 km/h (2 Bft)
22.08.2012 06:00 17,9 C 94 % 1013,2 hPa 0,0 l/m S-SW 0,00 h 9 W/m 2,8 km/h (1 Bft)
22.08.2012 07:00 19,1 C 88 % 1013,5 hPa 0,0 l/m SW 0,08 h 71 W/m 9,3 km/h (2 Bft)
22.08.2012 08:00 20,4 C 84 % 1013,9 hPa 0,0 l/m S-SW 0,17 h 88 W/m 7,9 km/h (2 Bft)
22.08.2012 09:00 21,2 C 84 % 1014,5 hPa 0,0 l/m S 0,33 h 206 W/m 6,1 km/h (2 Bft)
22.08.2012 10:00 22,7 C 82 % 1015,1 hPa 0,0 l/m SW 0,08 h 248 W/m 12,5 km/h (3 Bft)
22.08.2012 11:00 23,8 C 77 % 1015,1 hPa 0,0 l/m SW 0,33 h 395 W/m 15,0 km/h (3 Bft)
22.08.2012 12:00 25,5 C 73 % 1014,5 hPa 0,0 l/m SW 0,92 h 738 W/m 18,1 km/h (3 Bft)
22.08.2012 13:00 26,1 C 70 % 1014,3 hPa 0,0 l/m W-SW 0,58 h 587 W/m 17,6 km/h (3 Bft)
22.08.2012 14:00 26,6 C 65 % 1014,3 hPa 0,0 l/m W 0,42 h 393 W/m 13,9 km/h (3 Bft)
22.08.2012 15:00 26,4 C 67 % 1014,1 hPa 0,0 l/m N-NW 0,75 h 617 W/m 9,3 km/h (2 Bft)
22.08.2012 16:00 26,7 C 63 % 1013,5 hPa 0,0 l/m W-NW 0,67 h 422 W/m 9,5 km/h (2 Bft)
22.08.2012 17:00 27,4 C 60 % 1013,1 hPa 0,0 l/m W 0,92 h 405 W/m 9,3 km/h (2 Bft)
22.08.2012 18:00 26,3 C 62 % 1012,9 hPa 0,0 l/m N 0,42 h 153 W/m 10,6 km/h (2 Bft)
22.08.2012 19:00 24,9 C 65 % 1013,0 hPa 0,0 l/m N 0,33 h 53 W/m 9,3 km/h (2 Bft)
22.08.2012 20:00 22,3 C 77 % 1013,5 hPa 0,0 l/m N 0,00 h 8 W/m 2,7 km/h (1 Bft)
22.08.2012 21:00 21,4 C 79 % 1014,0 hPa 0,0 l/m N 0,00 h 0 W/m 1,9 km/h (1 Bft)
22.08.2012 22:00 20,0 C 85 % 1014,3 hPa 0,0 l/m N 0,00 h 0 W/m 1,9 km/h (1 Bft)
22.08.2012 23:00 19,3 C 83 % 1014,1 hPa 0,0 l/m N 0,00 h 0 W/m 3,2 km/h (1 Bft)
23.08.2012 00:00 18,7 C 84 % 1014,4 hPa 2,6 l/m W-NW 0,00 h 0 W/m 5,1 km/h (1 Bft)
23.08.2012 01:00 16,9 C 95 % 1014,7 hPa 0,2 l/m W 0,00 h 0 W/m 3,2 km/h (1 Bft)
23.08.2012 02:00 16,1 C 92 % 1014,9 hPa 1,6 l/m S-SO 0,00 h 0 W/m 3,1 km/h (1 Bft)
23.08.2012 03:00 15,1 C 95 % 1014,4 hPa 3,2 l/m NW 0,00 h 0 W/m 2,9 km/h (1 Bft)
23.08.2012 04:00 14,6 C 96 % 1014,4 hPa 1,4 l/m W-NW 0,00 h 0 W/m 4,0 km/h (1 Bft)
23.08.2012 05:00 14,1 C 97 % 1014,1 hPa 0,0 l/m N 0,00 h 0 W/m 1,9 km/h (1 Bft)
23.08.2012 06:00 14,1 C 98 % 1014,2 hPa 0,0 l/m W 0,00 h 9 W/m 2,5 km/h (1 Bft)
23.08.2012 07:00 14,2 C 98 % 1013,9 hPa 0,2 l/m N 0,00 h 56 W/m 1,6 km/h (1 Bft)
23.08.2012 08:00 15,3 C 96 % 1014,1 hPa 0,0 l/m N 0,00 h 96 W/m 0,7 km/h (0 Bft)
23.08.2012 09:00 17,0 C 87 % 1014,0 hPa 0,0 l/m W-NW 0,67 h 297 W/m 5,1 km/h (1 Bft)
23.08.2012 10:00 19,3 C 72 % 1013,8 hPa 0,0 l/m N 1,00 h 506 W/m 7,4 km/h (2 Bft)
23.08.2012 11:00 20,9 C 69 % 1013,4 hPa 0,0 l/m O-SO 1,00 h 644 W/m 8,5 km/h (2 Bft)
23.08.2012 12:00 22,5 C 66 % 1012,7 hPa 0,0 l/m O 1,00 h 718 W/m 8,6 km/h (2 Bft)
23.08.2012 13:00 24,1 C 64 % 1012,5 hPa 0,0 l/m O-SO 1,00 h 756 W/m 8,2 km/h (2 Bft)
23.08.2012 14:00 25,3 C 63 % 1011,7 hPa 0,0 l/m O-SO 1,00 h 703 W/m 10,2 km/h (2 Bft)
23.08.2012 15:00 25,1 C 66 % 1011,4 hPa 0,0 l/m O-SO 0,08 h 238 W/m 6,4 km/h (2 Bft)
23.08.2012 16:00 24,5 C 69 % 1011,4 hPa 0,0 l/m O-SO 0,00 h 114 W/m 3,5 km/h (1 Bft)
23.08.2012 17:00 24,3 C 75 % 1011,5 hPa 0,0 l/m SO 0,33 h 241 W/m 5,2 km/h (1 Bft)
23.08.2012 18:00 24,6 C 78 % 1010,2 hPa 0,0 l/m S-SW 1,00 h 238 W/m 12,8 km/h (3 Bft)
23.08.2012 19:00 23,0 C 84 % 1009,4 hPa 0,0 l/m S-SW 0,25 h 50 W/m 2,7 km/h (1 Bft)
23.08.2012 20:00 21,1 C 91 % 1009,7 hPa 0,0 l/m S-SW 0,00 h 6 W/m 3,6 km/h (1 Bft)
23.08.2012 21:00 20,2 C 91 % 1009,4 hPa 0,0 l/m N 0,00 h 0 W/m 1,2 km/h (1 Bft)
23.08.2012 22:00 19,0 C 93 % 1008,6 hPa 0,0 l/m N 0,00 h 0 W/m 0,7 km/h (0 Bft)
23.08.2012 23:00 18,1 C 96 % 1008,0 hPa 0,0 l/m N 0,00 h 0 W/m 0,1 km/h (0 Bft)
24.08.2012 00:00 17,8 C 93 % 1009,4 hPa 2,0 l/m W 0,00 h 0 W/m 22,1 km/h (4 Bft)
24.08.2012 01:00 16,8 C 93 % 1010,7 hPa 3,0 l/m SW 0,00 h 0 W/m 10,6 km/h (2 Bft)
24.08.2012 02:00 16,5 C 95 % 1010,8 hPa 1,8 l/m W-SW 0,00 h 0 W/m 18,5 km/h (3 Bft)
24.08.2012 03:00 16,5 C 96 % 1010,4 hPa 2,8 l/m S-SW 0,00 h 0 W/m 17,0 km/h (3 Bft)
24.08.2012 04:00 16,2 C 97 % 1008,5 hPa 0,0 l/m S-SW 0,00 h 0 W/m 18,4 km/h (3 Bft)
24.08.2012 05:00 15,9 C 98 % 1007,7 hPa 0,0 l/m S-SW 0,00 h 0 W/m 6,4 km/h (2 Bft)
24.08.2012 06:00 15,8 C 98 % 1007,3 hPa 0,0 l/m S-SW 0,00 h 7 W/m 4,0 km/h (1 Bft)
24.08.2012 07:00 16,4 C 97 % 1007,9 hPa 0,0 l/m W-SW 0,00 h 24 W/m 13,4 km/h (3 Bft)
24.08.2012 08:00 17,1 C 96 % 1008,3 hPa 0,0 l/m SW 0,00 h 51 W/m 13,3 km/h (3 Bft)
24.08.2012 09:00 17,6 C 96 % 1008,6 hPa 0,0 l/m S-SW 0,00 h 92 W/m 12,5 km/h (3 Bft)
24.08.2012 10:00 18,6 C 95 % 1008,5 hPa 0,0 l/m SW 0,00 h 130 W/m 14,2 km/h (3 Bft)
24.08.2012 11:00 19,7 C 90 % 1009,0 hPa 0,0 l/m SW 0,00 h 166 W/m 16,0 km/h (3 Bft)
24.08.2012 12:00 19,8 C 87 % 1009,1 hPa 0,0 l/m W-SW 0,00 h 107 W/m 12,2 km/h (2 Bft)
24.08.2012 13:00 19,5 C 90 % 1008,9 hPa 0,8 l/m SW 0,00 h 90 W/m 13,6 km/h (3 Bft)
24.08.2012 14:00 19,7 C 90 % 1007,9 hPa 0,0 l/m W-SW 0,00 h 137 W/m 13,2 km/h (3 Bft)
24.08.2012 15:00 20,2 C 87 % 1007,8 hPa 0,0 l/m SW 0,00 h 144 W/m 12,2 km/h (2 Bft)
24.08.2012 16:00 20,2 C 86 % 1008,1 hPa 0,0 l/m SW 0,00 h 83 W/m 6,6 km/h (2 Bft)
24.08.2012 17:00 19,5 C 86 % 1008,4 hPa 0,0 l/m W-NW 0,00 h 45 W/m 3,9 km/h (1 Bft)
24.08.2012 18:00 18,7 C 91 % 1008,6 hPa 0,6 l/m S-SW 0,00 h 23 W/m 4,4 km/h (1 Bft)
24.08.2012 19:00 17,8 C 95 % 1007,9 hPa 0,0 l/m S 0,00 h 18 W/m 6,0 km/h (2 Bft)
24.08.2012 20:00 17,2 C 96 % 1008,3 hPa 5,2 l/m SW 0,00 h 0 W/m 6,0 km/h (2 Bft)
24.08.2012 21:00 16,9 C 97 % 1009,1 hPa 5,0 l/m SW 0,00 h 0 W/m 3,7 km/h (1 Bft)
24.08.2012 22:00 16,8 C 98 % 1009,9 hPa 7,8 l/m W-SW 0,00 h 0 W/m 6,0 km/h (2 Bft)
24.08.2012 23:00 16,8 C 98 % 1010,2 hPa 4,4 l/m W-SW 0,00 h 0 W/m 4,8 km/h (1 Bft)
25.08.2012 00:00 16,7 C 99 % 1009,9 hPa 2,8 l/m SW 0,00 h 0 W/m 11,6 km/h (2 Bft)
25.08.2012 01:00 16,7 C 99 % 1009,6 hPa 1,6 l/m S-SW 0,00 h 0 W/m 14,4 km/h (3 Bft)
25.08.2012 02:00 16,7 C 99 % 1009,2 hPa 0,2 l/m SW 0,00 h 0 W/m 18,5 km/h (3 Bft)
25.08.2012 03:00 16,5 C 99 % 1009,3 hPa 0,0 l/m SW 0,00 h 0 W/m 12,2 km/h (2 Bft)
25.08.2012 04:00 16,4 C 99 % 1009,1 hPa 0,0 l/m SW 0,00 h 0 W/m 10,3 km/h (2 Bft)
25.08.2012 05:00 16,5 C 99 % 1009,0 hPa 0,0 l/m SW 0,00 h 0 W/m 11,0 km/h (2 Bft)
25.08.2012 06:00 16,5 C 99 % 1008,8 hPa 0,2 l/m SW 0,00 h 8 W/m 11,3 km/h (2 Bft)
25.08.2012 07:00 16,7 C 99 % 1008,8 hPa 0,0 l/m SW 0,08 h 37 W/m 12,2 km/h (2 Bft)
25.08.2012 08:00 17,6 C 99 % 1009,2 hPa 0,0 l/m SW 0,50 h 169 W/m 12,5 km/h (3 Bft)
25.08.2012 09:00 18,5 C 95 % 1009,4 hPa 0,0 l/m SW 0,58 h 323 W/m 15,7 km/h (3 Bft)
25.08.2012 10:00 19,6 C 89 % 1009,9 hPa 0,0 l/m W-SW 0,42 h 337 W/m 15,0 km/h (3 Bft)
25.08.2012 11:00 20,5 C 85 % 1009,9 hPa 0,0 l/m W-SW 0,25 h 361 W/m 14,9 km/h (3 Bft)
25.08.2012 12:00 21,1 C 82 % 1009,7 hPa 0,0 l/m W-SW 0,50 h 534 W/m 16,5 km/h (3 Bft)
25.08.2012 13:00 22,6 C 73 % 1009,3 hPa 0,0 l/m W-SW 0,83 h 745 W/m 23,6 km/h (4 Bft)
25.08.2012 14:00 23,0 C 70 % 1009,2 hPa 0,0 l/m W-SW 0,42 h 476 W/m 21,0 km/h (4 Bft)
25.08.2012 15:00 23,0 C 70 % 1008,8 hPa 0,0 l/m W-SW 0,58 h 381 W/m 20,5 km/h (4 Bft)
25.08.2012 16:00 23,3 C 67 % 1008,4 hPa 0,0 l/m W 0,42 h 421 W/m 15,7 km/h (3 Bft)
25.08.2012 17:00 23,0 C 62 % 1007,9 hPa 0,0 l/m W-NW 0,42 h 220 W/m 16,5 km/h (3 Bft)
25.08.2012 18:00 22,3 C 64 % 1008,0 hPa 0,0 l/m W 0,08 h 37 W/m 10,5 km/h (2 Bft)
25.08.2012 19:00 20,8 C 62 % 1008,5 hPa 0,0 l/m W-NW 0,00 h 7 W/m 10,6 km/h (2 Bft)
25.08.2012 20:00 19,5 C 73 % 1009,0 hPa 0,0 l/m W-SW 0,00 h 0 W/m 9,5 km/h (2 Bft)
25.08.2012 21:00 16,4 C 85 % 1010,9 hPa 1,2 l/m W 0,00 h 0 W/m 19,2 km/h (3 Bft)
25.08.2012 22:00 14,0 C 93 % 1012,0 hPa 3,0 l/m SW 0,00 h 0 W/m 15,8 km/h (3 Bft)
25.08.2012 23:00 13,8 C 96 % 1012,3 hPa 1,8 l/m SW 0,00 h 0 W/m 23,2 km/h (4 Bft)
26.08.2012 00:00 13,7 C 97 % 1013,0 hPa 0,0 l/m SW 0,00 h 0 W/m 17,3 km/h (3 Bft)
26.08.2012 01:00 13,4 C 97 % 1013,1 hPa 0,0 l/m SW 0,00 h 0 W/m 18,5 km/h (3 Bft)
26.08.2012 02:00 12,9 C 97 % 1012,9 hPa 0,2 l/m W-SW 0,00 h 0 W/m 11,8 km/h (2 Bft)
26.08.2012 03:00 12,9 C 97 % 1012,7 hPa 0,0 l/m W-SW 0,00 h 0 W/m 14,9 km/h (3 Bft)
26.08.2012 04:00 13,0 C 96 % 1012,5 hPa 0,0 l/m W-SW 0,00 h 0 W/m 10,6 km/h (2 Bft)
26.08.2012 05:00 12,5 C 97 % 1012,6 hPa 0,0 l/m W-SW 0,00 h 0 W/m 7,0 km/h (2 Bft)
26.08.2012 06:00 12,4 C 97 % 1012,8 hPa 0,2 l/m SW 0,00 h 8 W/m 6,8 km/h (2 Bft)
26.08.2012 07:00 12,5 C 98 % 1013,2 hPa 0,0 l/m SW 0,17 h 53 W/m 8,2 km/h (2 Bft)
26.08.2012 08:00 13,9 C 94 % 1013,8 hPa 0,0 l/m W-SW 0,42 h 143 W/m 17,3 km/h (3 Bft)
26.08.2012 09:00 15,2 C 81 % 1014,4 hPa 0,0 l/m W 1,00 h 420 W/m 20,0 km/h (4 Bft)
26.08.2012 10:00 16,0 C 72 % 1014,8 hPa 0,0 l/m W 1,00 h 632 W/m 25,3 km/h (4 Bft)
26.08.2012 11:00 16,8 C 69 % 1015,1 hPa 0,0 l/m W-SW 0,75 h 614 W/m 21,4 km/h (4 Bft)
26.08.2012 12:00 18,2 C 63 % 1015,1 hPa 0,0 l/m W-SW 1,00 h 836 W/m 26,4 km/h (4 Bft)
26.08.2012 13:00 16,7 C 71 % 1015,3 hPa 0,0 l/m W 0,42 h 425 W/m 24,5 km/h (4 Bft)
26.08.2012 14:00 18,6 C 63 % 1015,3 hPa 0,0 l/m W-SW 1,00 h 853 W/m 30,3 km/h (5 Bft)
26.08.2012 15:00 18,4 C 58 % 1015,5 hPa 0,0 l/m W 0,58 h 539 W/m 29,5 km/h (5 Bft)
26.08.2012 16:00 18,2 C 62 % 1015,7 hPa 0,0 l/m W 0,67 h 493 W/m 26,2 km/h (4 Bft)
26.08.2012 17:00 17,4 C 63 % 1016,2 hPa 0,0 l/m W-NW 0,42 h 288 W/m 22,4 km/h (4 Bft)
26.08.2012 18:00 17,1 C 65 % 1016,6 hPa 0,0 l/m W 0,50 h 201 W/m 20,0 km/h (4 Bft)
26.08.2012 19:00 16,1 C 68 % 1017,1 hPa 0,0 l/m W-NW 0,08 h 38 W/m 13,4 km/h (3 Bft)
26.08.2012 20:00 15,0 C 72 % 1018,0 hPa 0,0 l/m W 0,00 h 7 W/m 14,4 km/h (3 Bft)
26.08.2012 21:00 14,9 C 73 % 1019,5 hPa 0,0 l/m W 0,00 h 0 W/m 11,3 km/h (2 Bft)
26.08.2012 22:00 14,0 C 77 % 1020,1 hPa 0,0 l/m W 0,00 h 0 W/m 7,8 km/h (2 Bft)
26.08.2012 23:00 13,8 C 80 % 1020,7 hPa 0,0 l/m W 0,00 h 0 W/m 5,8 km/h (1 Bft)
Min-Datum _ 26.08.12 20.08.12 24.08.12 - - - - 20.08.12
_ Min-Zeit 07:05 16:15 06:45 - - - - 00:00
Minimum _ 12,2 C 41 % 1007,1 hPa - - - - 0,0 km/h (0 Bft)
Max-Datum _ 20.08.12 23.08.12 26.08.12 20.08.12 - 20.08.12 26.08.12 22.08.12
_ Max-Zeit 16:15 08:10 23:30 22:55 - 06:35 13:05 01:40
Maximum _ 33,4 C 100 % 1020,9 hPa 13,2 l/m - 0,08 h 993 W/m 54,7 km/h
W (7 Bft)
Durchschnitt _ 19,9 C 83 % 1013,2 hPa #75,4 l/m SW #45:00 h 302 W/m 9,6 km/h (2 Bft)